.
WxDataArchive / Data Records for 2006-05-20
2006-05-19 May 2006 2006-05-21

Data Records for Saturday, 20 May 2006

Time	Temp	Chill	HIndex	Humid	Dewpt	 Wind 	HiWind	WindDir	Rain 	Barom 
-----	----	-----	------	-----	-----	------	------	-------	-----	----- 
00:00	48.9	48.9	48.9	68	38.8	0	1	270	0.00	29.786 
00:05	48.8	48.8	48.8	69	39.1	0	1	270	0.00	29.786 
00:10	48.6	48.6	48.6	69	38.9	0	1	270	0.00	29.786 
00:15	48.5	48.5	48.5	69	38.8	0	2	270	0.00	29.783 
00:20	48.5	48.5	48.5	69	38.8	0	1	270	0.00	29.783 
00:25	48.3	48.3	48.3	69	38.6	0	1	270	0.00	29.783 
00:30	48.2	48.2	48.2	69	38.5	0	1	270	0.00	29.781 
00:35	48.0	48.0	48.0	69	38.3	1	2	270	0.00	29.781 
00:40	48.0	48.0	48.0	69	38.3	0	1	248	0.00	29.781 
00:45	48.0	48.0	48.0	70	38.7	0	2	248	0.00	29.780 
00:50	47.9	47.9	47.9	69	38.2	0	1	248	0.00	29.780 
00:55	47.9	47.9	47.9	70	38.6	0	2	248	0.00	29.780 
01:00	47.7	47.7	47.7	70	38.4	0	1	248	0.00	29.781 
01:05	47.4	47.4	47.4	71	38.5	0	1	248	0.00	29.781 
01:10	47.3	47.3	47.3	71	38.4	0	2	248	0.00	29.781 
01:15	47.1	47.1	47.1	72	38.5	0	1	248	0.00	29.781 
01:20	47.0	47.0	47.0	72	38.4	0	2	248	0.00	29.781 
01:25	46.8	46.8	46.8	72	38.3	0	1	248	0.00	29.781 
01:30	46.7	46.7	46.7	73	38.5	0	1	248	0.00	29.777 
01:35	46.7	46.7	46.7	73	38.5	0	1	248	0.00	29.777 
01:40	46.4	46.4	46.4	73	38.2	0	2	248	0.00	29.777 
01:45	46.4	46.4	46.4	73	38.2	1	3	248	0.00	29.776 
01:50	46.2	46.2	46.2	73	38.0	0	1	248	0.00	29.776 
01:55	46.1	46.1	46.1	74	38.3	0	2	248	0.00	29.776 
02:00	46.0	46.0	46.0	74	38.2	0	1	248	0.00	29.771 
02:05	45.8	45.8	45.8	74	38.0	0	2	248	0.00	29.771 
02:10	45.7	45.7	45.7	74	37.9	0	3	248	0.00	29.771 
02:15	45.7	45.7	45.7	75	38.2	0	1	248	0.00	29.770 
02:20	45.5	45.5	45.5	75	38.0	0	1	248	0.00	29.770 
02:25	45.4	45.4	45.4	75	37.9	0	3	248	0.00	29.770 
02:30	45.2	45.2	45.2	75	37.8	0	1	248	0.00	29.769 
02:35	45.1	45.1	45.1	75	37.7	0	1	248	0.00	29.769 
02:40	44.9	44.9	44.9	75	37.5	0	1	248	0.00	29.769 
02:45	44.9	44.9	44.9	76	37.8	0	1	248	0.00	29.767 
02:50	44.8	44.8	44.8	75	37.4	0	1	248	0.00	29.767 
02:55	44.8	44.8	44.8	76	37.7	0	1	248	0.00	29.767 
03:00	44.8	44.8	44.8	75	37.4	0	2	248	0.00	29.766 
03:05	44.8	44.8	44.8	75	37.4	0	2	248	0.00	29.766 
03:10	44.8	44.8	44.8	74	37.0	1	3	248	0.00	29.766 
03:15	44.8	44.8	44.8	74	37.0	0	2	248	0.00	29.765 
03:20	44.6	44.6	44.6	74	36.8	0	1	248	0.00	29.765 
03:25	44.6	44.6	44.6	73	36.5	0	2	248	0.00	29.765 
03:30	44.8	44.8	44.8	73	36.7	0	2	315	0.00	29.769 
03:35	45.1	45.1	45.1	72	36.6	1	3	270	0.00	29.769 
03:40	45.1	45.1	45.1	71	36.3	1	2	270	0.00	29.769 
03:45	45.1	45.1	45.1	70	35.9	0	2	292	0.00	29.772 
03:50	45.1	45.1	45.1	70	35.9	1	4	315	0.00	29.772 
03:55	44.9	44.9	44.9	71	36.1	0	1	315	0.00	29.772 
04:00	44.8	44.8	44.8	71	36.0	0	1	315	0.00	29.774 
04:05	44.5	44.5	44.5	71	35.7	0	1	315	0.00	29.774 
04:10	44.2	44.2	44.2	72	35.8	0	2	315	0.00	29.774 
04:15	43.9	43.9	43.9	73	35.8	0	0	---	0.00	29.773 
04:20	43.6	43.6	43.6	73	35.5	0	1	315	0.00	29.773 
04:25	43.5	43.5	43.5	74	35.8	0	1	315	0.00	29.773 
04:30	43.2	43.2	43.2	74	35.5	0	1	315	0.00	29.772 
04:35	43.2	43.2	43.2	74	35.5	0	0	---	0.00	29.772 
04:40	43.1	43.1	43.1	75	35.7	0	0	---	0.00	29.772 
04:45	42.8	42.8	42.8	75	35.4	0	0	---	0.00	29.773 
04:50	42.6	42.6	42.6	76	35.6	0	1	315	0.00	29.773 
04:55	42.5	42.5	42.5	76	35.5	0	0	---	0.00	29.773 
05:00	42.3	42.3	42.3	76	35.3	0	1	315	0.00	29.776 
05:05	42.2	42.2	42.2	76	35.2	0	1	315	0.00	29.776 
05:10	42.2	42.2	42.2	77	35.5	0	0	---	0.00	29.776 
05:15	42.1	42.1	42.1	77	35.4	0	1	315	0.00	29.784 
05:20	41.9	41.9	41.9	77	35.2	0	0	---	0.00	29.784 
05:25	41.8	41.8	41.8	77	35.1	0	0	---	0.00	29.784 
05:30	41.5	41.5	41.5	78	35.2	0	0	---	0.00	29.782 
05:35	41.2	41.2	41.2	78	34.9	0	0	---	0.00	29.782 
05:40	40.9	40.9	40.9	79	34.9	0	0	---	0.00	29.782 
05:45	40.6	40.6	40.6	80	34.9	0	0	---	0.00	29.786 
05:50	40.3	40.3	40.3	81	34.9	0	0	---	0.00	29.786 
05:55	40.2	40.2	40.2	81	34.8	0	0	---	0.00	29.786 
06:00	40.1	40.1	40.1	82	35.1	0	0	---	0.00	29.794 
06:05	40.1	40.1	40.1	82	35.1	0	0	---	0.00	29.794 
06:10	40.1	40.1	40.1	82	35.1	0	0	---	0.00	29.794 
06:15	40.1	40.1	40.1	82	35.1	0	0	---	0.00	29.796 
06:20	40.1	40.1	40.1	82	35.1	0	0	---	0.00	29.796 
06:25	40.2	40.2	40.2	82	35.2	0	0	---	0.00	29.796 
06:30	40.2	40.2	40.2	82	35.2	0	0	---	0.00	29.805 
06:35	40.3	40.3	40.3	82	35.2	0	0	---	0.00	29.805 
06:40	40.5	40.5	40.5	81	35.1	0	1	315	0.00	29.805 
06:45	40.8	40.8	40.8	81	35.4	0	2	315	0.00	29.819 
06:50	40.9	40.9	40.9	80	35.2	0	1	315	0.00	29.819 
06:55	41.2	41.2	41.2	80	35.5	0	1	315	0.00	29.819 
07:00	41.3	41.3	41.3	79	35.3	0	1	315	0.00	29.826 
07:05	41.6	41.6	41.6	78	35.3	0	1	315	0.00	29.826 
07:10	41.9	41.9	41.9	78	35.5	0	1	315	0.00	29.826 
07:15	42.2	42.2	42.2	77	35.5	0	2	315	0.00	29.835 
07:20	42.8	42.8	42.8	76	35.8	0	1	315	0.00	29.835 
07:25	43.2	43.2	43.2	75	35.8	0	2	315	0.00	29.835 
07:30	43.6	43.6	43.6	73	35.5	0	1	315	0.00	29.836 
07:35	44.1	44.1	44.1	73	36.0	0	2	315	0.00	29.836 
07:40	44.5	44.5	44.5	72	36.0	1	3	270	0.00	29.836 
07:45	44.9	44.9	44.9	72	36.4	0	2	270	0.00	29.846 
07:50	45.4	45.4	45.4	71	36.6	0	2	270	0.00	29.846 
07:55	45.7	45.7	45.7	68	35.8	1	2	315	0.00	29.846 
08:00	46.0	46.0	46.0	69	36.4	0	1	315	0.00	29.853 
08:05	46.4	46.4	46.4	69	36.8	0	2	315	0.00	29.853 
08:10	46.8	46.8	46.8	67	36.4	1	3	315	0.00	29.853 
08:15	47.1	47.1	47.1	67	36.7	1	3	292	0.00	29.857 
08:20	47.4	47.4	47.4	66	36.6	1	3	292	0.00	29.857 
08:25	47.9	47.9	47.9	66	37.1	1	3	292	0.00	29.857 
08:30	48.2	48.2	48.2	68	38.1	1	3	292	0.00	29.858 
08:35	48.9	48.9	48.9	65	37.7	0	2	315	0.00	29.858 
08:40	49.4	49.4	49.4	63	37.3	1	2	315	0.00	29.858 
08:45	49.8	49.8	49.8	64	38.1	1	2	315	0.00	29.858 
08:50	50.5	50.5	50.5	60	37.1	0	2	315	0.00	29.858 
08:55	51.0	51.0	51.0	60	37.6	0	2	315	0.00	29.858 
09:00	51.1	51.1	51.1	62	38.5	0	2	315	0.00	29.861 
09:05	51.6	51.6	51.6	58	37.3	1	4	45	0.00	29.861 
09:10	52.0	52.0	52.0	60	38.5	0	1	45	0.00	29.861 
09:15	52.5	52.5	52.5	57	37.7	0	2	0	0.00	29.864 
09:20	52.9	52.9	52.9	55	37.2	1	3	45	0.00	29.864 
09:25	53.3	53.3	53.3	56	38.0	1	4	45	0.00	29.864 
09:30	53.6	53.6	53.6	53	36.9	1	3	248	0.00	29.865 
09:35	53.8	53.8	53.8	55	38.0	1	3	248	0.00	29.865 
09:40	53.9	53.9	53.9	55	38.1	1	2	315	0.00	29.865 
09:45	54.5	54.5	54.5	52	37.2	1	2	315	0.00	29.868 
09:50	54.5	54.5	54.5	52	37.2	1	2	292	0.00	29.868 
09:55	55.1	55.1	55.1	56	39.7	0	2	292	0.00	29.868 
10:00	55.7	55.7	55.7	50	37.3	1	3	270	0.00	29.866 
10:05	55.7	55.7	55.7	51	37.9	1	3	270	0.00	29.866 
10:10	56.5	56.5	56.5	50	38.1	1	4	45	0.00	29.866 
10:15	56.9	56.9	56.9	49	37.9	1	4	68	0.00	29.873 
10:20	57.5	57.5	57.5	52	40.0	1	3	90	0.00	29.873 
10:25	57.6	57.6	57.6	46	37.0	1	3	90	0.00	29.873 
10:30	57.5	57.5	57.5	50	39.0	1	2	90	0.00	29.878 
10:35	57.3	57.3	57.3	44	35.6	1	3	292	0.00	29.878 
10:40	57.6	57.6	57.6	47	37.5	1	4	90	0.00	29.878 
10:45	58.3	58.3	58.3	51	40.3	0	2	90	0.00	29.880 
10:50	58.4	58.4	58.4	51	40.3	1	4	292	0.00	29.880 
10:55	58.3	58.3	58.3	46	37.6	1	2	292	0.00	29.880 
11:00	58.4	58.4	58.4	46	37.7	1	4	45	0.00	29.880 
11:05	58.6	58.6	58.6	47	38.4	1	4	45	0.00	29.880 
11:10	58.9	58.9	58.9	43	36.4	1	3	338	0.00	29.880 
11:15	59.5	59.5	59.5	45	38.1	1	4	270	0.00	29.883 
11:20	59.8	59.8	59.8	45	38.4	1	3	22	0.00	29.883 
11:25	59.9	59.9	59.9	47	39.6	1	3	270	0.00	29.883 
11:30	60.4	60.4	60.4	44	38.4	1	4	270	0.00	29.878 
11:35	60.5	60.5	60.5	49	41.2	1	2	270	0.00	29.878 
11:40	60.7	60.7	60.7	46	39.8	1	3	315	0.00	29.878 
11:45	60.9	60.9	60.9	43	38.3	1	4	248	0.00	29.870 
11:50	61.0	61.0	61.0	42	37.7	1	3	248	0.00	29.870 
11:55	61.5	61.5	61.5	47	41.1	0	3	248	0.00	29.870 
12:00	62.1	62.1	62.1	45	40.5	1	3	270	0.00	29.873 
12:05	61.8	61.8	61.8	42	38.5	2	4	292	0.00	29.873 
12:10	62.0	62.0	62.0	44	39.8	1	4	45	0.00	29.873 
12:15	62.3	62.3	62.3	44	40.1	1	2	0	0.00	29.866 
12:20	62.3	62.3	62.3	40	37.7	2	4	270	0.00	29.866 
12:25	62.9	62.9	62.9	43	40.1	2	4	248	0.00	29.866 
12:30	62.6	62.6	62.6	41	38.6	2	4	292	0.00	29.868 
12:35	62.6	62.6	62.6	40	37.9	2	4	248	0.00	29.868 
12:40	62.9	62.9	62.9	43	40.1	1	3	248	0.00	29.868 
12:45	63.4	63.4	63.4	40	38.7	1	4	248	0.00	29.876 
12:50	63.9	63.9	63.9	41	39.7	2	6	292	0.00	29.876 
12:55	63.7	63.7	63.7	39	38.3	1	4	315	0.00	29.876 
13:00	63.7	63.7	63.7	41	39.6	2	3	270	0.00	29.871 
13:05	63.9	63.9	63.9	45	42.1	2	4	292	0.00	29.871 
13:10	63.9	63.9	63.9	42	40.4	2	4	270	0.00	29.871 
13:15	64.3	64.3	64.3	43	41.3	1	4	248	0.00	29.870 
13:20	64.7	64.7	64.7	43	41.7	2	5	292	0.00	29.870 
13:25	64.8	64.8	64.8	40	39.9	2	5	248	0.00	29.870 
13:30	64.8	64.8	64.8	39	39.3	2	4	270	0.00	29.861 
13:35	64.8	64.8	64.8	41	40.5	2	5	270	0.00	29.861 
13:40	64.8	64.8	64.8	41	40.5	2	6	270	0.00	29.861 
13:45	65.2	65.2	65.2	40	40.3	4	12	270	0.00	29.856 
13:50	65.0	65.0	65.0	35	36.7	2	4	270	0.00	29.856 
13:55	65.5	65.5	65.5	41	41.2	2	9	270	0.00	29.856 
14:00	66.1	66.1	66.1	38	39.7	1	4	315	0.00	29.854 
14:05	66.3	66.3	66.3	40	41.2	2	5	270	0.00	29.854 
14:10	66.1	66.1	66.1	37	39.1	3	6	248	0.00	29.854 
14:15	66.3	66.3	66.3	43	43.1	3	8	270	0.00	29.854 
14:20	66.1	66.1	66.1	39	40.4	2	7	270	0.00	29.854 
14:25	66.9	66.9	66.9	38	40.5	2	4	292	0.00	29.854 
14:30	67.4	67.4	67.4	41	42.9	2	5	248	0.00	29.851 
14:35	67.6	67.6	67.6	35	39.0	2	7	270	0.00	29.851 
14:40	67.1	67.1	67.1	35	38.5	3	5	270	0.00	29.851 
14:45	67.3	67.3	67.3	41	42.8	2	4	292	0.00	29.852 
14:50	67.6	67.6	67.6	35	39.0	3	5	270	0.00	29.852 
14:55	67.8	67.8	67.8	38	41.3	3	7	248	0.00	29.852 
15:00	67.6	67.6	67.6	36	39.7	3	5	292	0.00	29.849 
15:05	67.4	67.4	67.4	37	40.2	2	6	338	0.00	29.849 
15:10	67.6	67.6	67.6	37	40.4	2	5	315	0.00	29.849 
15:15	67.8	67.8	67.8	36	39.9	2	4	315	0.00	29.842 
15:20	67.9	67.9	67.9	37	40.7	2	5	270	0.00	29.842 
15:25	67.9	67.9	67.9	36	40.0	3	6	292	0.00	29.842 
15:30	68.1	68.1	68.1	38	41.5	2	5	315	0.00	29.842 
15:35	68.1	68.1	68.1	36	40.1	3	5	270	0.00	29.842 
15:40	68.1	68.1	68.1	38	41.5	2	6	270	0.00	29.842 
15:45	68.1	68.1	68.1	34	38.7	2	6	315	0.00	29.838 
15:50	68.3	68.3	68.3	37	41.0	1	3	0	0.00	29.838 
15:55	68.1	68.1	68.1	37	40.8	2	5	315	0.00	29.838 
16:00	68.8	68.8	68.8	37	41.5	2	5	292	0.00	29.828 
16:05	69.3	69.3	69.3	37	41.9	2	5	338	0.00	29.828 
16:10	68.9	68.9	68.9	33	38.6	3	4	270	0.00	29.828 
16:15	68.9	68.9	68.9	35	40.1	2	5	248	0.00	29.832 
16:20	68.6	68.6	68.6	34	39.1	2	5	292	0.00	29.832 
16:25	68.8	68.8	68.8	38	42.1	2	4	270	0.00	29.832 
16:30	69.3	69.3	69.3	33	39.0	3	9	248	0.00	29.831 
16:35	68.4	68.4	68.4	36	40.4	1	3	270	0.00	29.831 
16:40	68.6	68.6	68.6	36	40.6	2	6	270	0.00	29.831 
16:45	69.1	69.1	69.1	31	37.2	2	4	0	0.00	29.828 
16:50	69.1	69.1	69.1	34	39.5	3	7	270	0.00	29.828 
16:55	69.1	69.1	69.1	32	38.0	3	5	315	0.00	29.828 
17:00	69.3	69.3	69.3	35	40.5	3	5	270	0.00	29.829 
17:05	69.4	69.4	69.4	34	39.8	2	4	248	0.00	29.829 
17:10	69.8	69.8	69.8	37	42.3	3	8	248	0.00	29.829 
17:15	69.8	69.8	69.8	35	40.9	2	4	292	0.00	29.823 
17:20	69.6	69.6	69.6	31	37.6	2	5	315	0.00	29.823 
17:25	68.6	68.6	68.6	32	37.6	3	6	270	0.00	29.823 
17:30	68.8	68.8	68.8	35	40.0	2	4	292	0.00	29.828 
17:35	69.1	69.1	69.1	35	40.3	2	5	248	0.00	29.828 
17:40	69.1	69.1	69.1	34	39.5	3	11	292	0.00	29.828 
17:45	68.4	68.4	68.4	36	40.4	2	4	270	0.00	29.823 
17:50	68.9	68.9	68.9	34	39.4	2	5	292	0.00	29.823 
17:55	69.3	69.3	69.3	35	40.5	2	3	248	0.00	29.823 
18:00	68.9	68.9	68.9	34	39.4	2	4	270	0.00	29.817 
18:05	68.9	68.9	68.9	34	39.4	2	3	270	0.00	29.817 
18:10	68.8	68.8	68.8	33	38.5	2	3	292	0.00	29.817 
18:15	68.9	68.9	68.9	35	40.1	3	8	248	0.00	29.816 
18:20	68.3	68.3	68.3	31	36.5	3	7	270	0.00	29.816 
18:25	67.6	67.6	67.6	35	39.0	2	4	270	0.00	29.816 
18:30	67.1	67.1	67.1	34	37.8	2	4	248	0.00	29.817 
18:35	66.9	66.9	66.9	36	39.1	1	2	248	0.00	29.817 
18:40	67.3	67.3	67.3	39	41.5	1	2	315	0.00	29.817 
18:45	67.8	67.8	67.8	34	38.4	3	5	270	0.00	29.816 
18:50	67.3	67.3	67.3	34	38.0	2	6	248	0.00	29.816 
18:55	66.9	66.9	66.9	35	38.4	1	4	248	0.00	29.816 
19:00	66.6	66.6	66.6	37	39.5	1	3	248	0.00	29.814 
19:05	66.6	66.6	66.6	35	38.1	1	4	248	0.00	29.814 
19:10	66.8	66.8	66.8	37	39.7	0	2	248	0.00	29.814 
19:15	66.8	66.8	66.8	36	39.0	2	4	248	0.00	29.805 
19:20	66.6	66.6	66.6	37	39.5	2	4	248	0.00	29.805 
19:25	66.8	66.8	66.8	36	39.0	2	4	270	0.00	29.805 
19:30	67.3	67.3	67.3	35	38.7	2	4	248	0.00	29.801 
19:35	67.3	67.3	67.3	35	38.7	2	5	248	0.00	29.801 
19:40	67.3	67.3	67.3	36	39.4	2	5	248	0.00	29.801 
19:45	66.9	66.9	66.9	35	38.4	2	5	248	0.00	29.805 
19:50	66.8	66.8	66.8	36	39.0	2	5	248	0.00	29.805 
19:55	66.6	66.6	66.6	36	38.8	2	4	248	0.00	29.805 
20:00	66.3	66.3	66.3	38	39.9	1	3	248	0.00	29.809 
20:05	66.1	66.1	66.1	38	39.7	1	3	248	0.00	29.809 
20:10	66.0	66.0	66.0	39	40.3	1	4	248	0.00	29.809 
20:15	65.8	65.8	65.8	39	40.1	2	3	248	0.00	29.811 
20:20	65.5	65.5	65.5	40	40.5	2	4	270	0.00	29.811 
20:25	65.3	65.3	65.3	41	41.0	1	3	270	0.00	29.811 
20:30	65.2	65.2	65.2	40	40.3	2	10	248	0.00	29.809 
20:35	65.0	65.0	65.0	40	40.1	2	4	248	0.00	29.809 
20:40	64.8	64.8	64.8	41	40.5	1	4	248	0.00	29.809 
20:45	64.5	64.5	64.5	42	40.9	1	2	248	0.00	29.808 
20:50	64.2	64.2	64.2	43	41.2	1	3	248	0.00	29.808 
20:55	63.9	63.9	63.9	42	40.4	1	4	248	0.00	29.808 
21:00	63.7	63.7	63.7	43	40.8	1	2	248	0.00	29.805 
21:05	63.4	63.4	63.4	43	40.5	0	2	248	0.00	29.805 
21:10	63.1	63.1	63.1	44	40.8	1	3	248	0.00	29.805 
21:15	62.9	62.9	62.9	44	40.6	1	3	248	0.00	29.808 
21:20	62.7	62.7	62.7	44	40.5	1	3	248	0.00	29.808 
21:25	62.4	62.4	62.4	45	40.8	1	3	248	0.00	29.808 
21:30	62.3	62.3	62.3	45	40.7	1	3	248	0.00	29.807 
21:35	62.1	62.1	62.1	46	41.1	0	2	248	0.00	29.807 
21:40	61.8	61.8	61.8	46	40.8	1	3	248	0.00	29.807 
21:45	61.6	61.6	61.6	46	40.6	0	2	248	0.00	29.805 
21:50	61.3	61.3	61.3	47	40.9	1	3	248	0.00	29.805 
21:55	61.2	61.2	61.2	48	41.3	1	2	248	0.00	29.805 
22:00	60.9	60.9	60.9	49	41.6	1	3	248	0.00	29.803 
22:05	60.7	60.7	60.7	49	41.4	1	3	248	0.00	29.803 
22:10	60.7	60.7	60.7	48	40.9	1	4	248	0.00	29.803 
22:15	60.7	60.7	60.7	49	41.4	1	3	248	0.00	29.796 
22:20	60.5	60.5	60.5	49	41.2	1	4	270	0.00	29.796 
22:25	60.4	60.4	60.4	49	41.1	1	5	248	0.00	29.796 
22:30	60.4	60.4	60.4	49	41.1	1	4	248	0.00	29.792 
22:35	60.4	60.4	60.4	49	41.1	2	5	248	0.00	29.792 
22:40	60.5	60.5	60.5	49	41.2	2	4	248	0.00	29.792 
22:45	60.5	60.5	60.5	48	40.7	3	10	248	0.00	29.791 
22:50	60.7	60.7	60.7	48	40.9	2	5	270	0.00	29.791 
22:55	60.7	60.7	60.7	48	40.9	3	5	270	0.00	29.791 
23:00	60.7	60.7	60.7	48	40.9	2	7	248	0.00	29.791 
23:05	60.7	60.7	60.7	48	40.9	2	6	248	0.00	29.791 
23:10	60.5	60.5	60.5	48	40.7	2	5	248	0.00	29.791 
23:15	60.4	60.4	60.4	47	40.1	2	5	248	0.00	29.779 
23:20	60.4	60.4	60.4	47	40.1	2	5	248	0.00	29.779 
23:25	60.2	60.2	60.2	48	40.4	2	5	248	0.00	29.779 
23:30	60.2	60.2	60.2	48	40.4	2	6	248	0.00	29.773 
23:35	60.1	60.1	60.1	48	40.3	2	7	248	0.00	29.773 
23:40	60.1	60.1	60.1	48	40.3	2	6	248	0.00	29.773 
23:45	59.9	59.9	59.9	48	40.2	3	10	248	0.00	29.765 
23:50	59.9	59.9	59.9	48	40.2	2	5	270	0.00	29.765 
23:55	59.8	59.8	59.8	49	40.6	2	6	248	0.00	29.765 

CoCoRaHS
IN-AL-39
A2 Web Hosting
Creative Commons License
GoDaddy
Look for:

loaded 2017-12-13 10:15:32 • last modified 2010-11-18 10:43:29
Privacy PolicyDisclaimer
• wx.awcolley.com is powered by PmWiki v.2002016 •
• all content (unless otherwise noted) © 2017 A W Colley